Skip Navigation LinksHome page > Weather > Current weather Skip Navigation Links

Current Weather

Iowa City Muni, Iowa City, Iowa

For information only: do not use for flight planning or navigation.
Latest weather
Observation time Friday, December 3, 2021 3:52 AM CST
Local time Friday, December 3, 2021 4:10 AM CST
Flight conditions Visual Meteorological Conditions
Winds
Wind direction East (100°)
Wind speed 7 mph
Visibility 10 mi.
Sky condition
Ceiling unlimited
Sky clear
Temperature 41°F
Dewpoint 28°F
Altimeter 29.96 in.Hg
Derived measurements
Relative humidity 60%
Wind chill 36°F
Density altitude -504 ft.
Sea-level pressure 29.97 in.Hg
Remarks
Fully automated report.
Automated weather observing station with precipitation discriminator.
METAR KIOW 030952Z AUTO 10006KT 10SM CLR 05/M02 A2996 RMK AO2 SLP149 T00501022

Settings

Location code

InnerDrive.Weather 4.0.6770.0 Release CLR 4.0.30319.42000
Copyright ©2018 Inner Drive Technology. All rights reserved. Portions Copyright ©1986-2018 David Braverman.

Find weather

Site navigation


Skip Navigation Links

Place info

Page info

PayPal - The safer, easier way to pay online!

Return home.

Copyright ©2021 Inner Drive Technology. Purveyors of fine, hand-crafted computer software. Page printed 2021-12-03T10:10:30 UTC.